createdAt,value
2019-05-18T00:00:09.691Z,13.40
2019-05-18T00:02:44.009Z,13.50
2019-05-18T00:05:18.749Z,13.40
2019-05-18T00:07:54.147Z,13.40
2019-05-18T00:10:29.053Z,13.40
2019-05-18T00:13:03.696Z,13.40
2019-05-18T00:15:38.949Z,13.30
2019-05-18T00:18:13.460Z,13.30
2019-05-18T00:20:48.237Z,13.30
2019-05-18T00:23:22.397Z,13.20
2019-05-18T00:25:58.850Z,13.10
2019-05-18T00:28:33.145Z,13.20
2019-05-18T00:31:10.104Z,13.20
2019-05-18T00:33:50.569Z,13.10
2019-05-18T00:36:25.931Z,13.10
2019-05-18T00:39:00.435Z,13.10
2019-05-18T00:41:35.820Z,13.10
2019-05-18T00:44:10.286Z,13.10
2019-05-18T00:46:48.692Z,13.10
2019-05-18T00:49:23.473Z,13.20
2019-05-18T00:51:59.789Z,13.20
2019-05-18T00:54:34.436Z,13.30
2019-05-18T00:57:10.130Z,13.40
2019-05-18T00:59:45.030Z,13.50
2019-05-18T01:02:19.514Z,13.30
2019-05-18T01:04:54.315Z,13.30
2019-05-18T01:07:28.988Z,13.30
2019-05-18T01:10:03.753Z,13.30
2019-05-18T01:12:36.689Z,13.40
2019-05-18T01:15:09.998Z,13.40
2019-05-18T01:17:56.353Z,13.50
2019-05-18T01:20:14.408Z,13.40
2019-05-18T01:22:43.219Z,13.50
2019-05-18T01:25:11.983Z,13.50
2019-05-18T01:27:40.799Z,13.50
2019-05-18T01:30:10.709Z,13.50
2019-05-18T01:32:39.498Z,13.40
2019-05-18T01:35:08.882Z,13.50
2019-05-18T01:37:37.696Z,13.60
2019-05-18T01:40:06.860Z,13.60
2019-05-18T01:42:35.675Z,13.60
2019-05-18T01:45:16.338Z,13.40
2019-05-18T01:47:38.066Z,13.30
2019-05-18T01:50:07.980Z,13.20
2019-05-18T01:52:36.872Z,13.20
2019-05-18T01:55:06.853Z,13.00
2019-05-18T01:57:35.760Z,13.10
2019-05-18T02:00:06.757Z,13.00
2019-05-18T02:02:35.594Z,12.90
2019-05-18T02:05:06.828Z,12.80
2019-05-18T02:07:35.745Z,12.70
2019-05-18T02:10:06.280Z,12.60
2019-05-18T02:12:35.167Z,12.60
2019-05-18T02:15:05.386Z,12.60
2019-05-18T02:17:34.273Z,12.50
2019-05-18T02:20:03.166Z,12.40
2019-05-18T02:22:31.956Z,12.40
2019-05-18T02:25:00.741Z,12.30
2019-05-18T02:27:29.529Z,12.20
2019-05-18T02:29:58.320Z,12.20
2019-05-18T02:32:27.105Z,12.10
2019-05-18T02:34:55.875Z,12.20
2019-05-18T02:37:24.782Z,12.30
2019-05-18T02:39:55.185Z,12.20
2019-05-18T02:42:24.101Z,12.00
2019-05-18T02:44:52.892Z,12.00
2019-05-18T02:47:21.685Z,12.00
2019-05-18T02:49:50.569Z,12.00
2019-05-18T02:52:19.448Z,12.00
2019-05-18T02:54:48.249Z,12.20
2019-05-18T02:57:17.145Z,12.20
2019-05-18T02:59:45.927Z,12.20
2019-05-18T03:02:14.714Z,12.00
2019-05-18T03:04:43.683Z,11.70
2019-05-18T03:07:12.496Z,11.60
2019-05-18T03:09:41.489Z,11.50
2019-05-18T03:12:10.383Z,11.40
2019-05-18T03:14:39.269Z,11.30
2019-05-18T03:17:08.057Z,11.20
2019-05-18T03:19:36.859Z,11.20
2019-05-18T03:22:06.042Z,11.10
2019-05-18T03:24:34.831Z,11.00
2019-05-18T03:27:03.618Z,10.90
2019-05-18T03:29:32.412Z,11.00
2019-05-18T03:32:01.310Z,11.00
2019-05-18T03:34:30.188Z,11.00
2019-05-18T03:36:59.083Z,10.90
2019-05-18T03:39:27.971Z,10.90
2019-05-18T03:41:56.730Z,10.90
2019-05-18T03:44:25.522Z,10.80
2019-05-18T03:46:54.313Z,10.80
2019-05-18T03:49:27.387Z,10.80
2019-05-18T03:51:53.651Z,10.90
2019-05-18T03:54:22.449Z,10.90
2019-05-18T03:56:51.210Z,11.00
2019-05-18T03:59:20.018Z,10.90
2019-05-18T04:01:48.805Z,10.90
2019-05-18T04:04:18.586Z,10.80
2019-05-18T04:06:47.612Z,10.80
2019-05-18T04:09:16.372Z,10.80
2019-05-18T04:11:45.299Z,10.70
2019-05-18T04:14:14.091Z,10.80
2019-05-18T04:16:42.843Z,10.90
2019-05-18T04:19:11.756Z,11.00
2019-05-18T04:21:40.847Z,11.00
2019-05-18T04:24:09.742Z,11.10
2019-05-18T04:26:38.851Z,11.20
2019-05-18T04:29:07.733Z,11.20
2019-05-18T04:31:36.622Z,11.20
2019-05-18T04:34:05.511Z,11.30
2019-05-18T04:36:34.270Z,11.30
2019-05-18T04:39:03.085Z,11.20
2019-05-18T04:41:31.849Z,11.20
2019-05-18T04:44:00.559Z,11.20
2019-05-18T04:46:29.222Z,11.20
2019-05-18T04:48:58.030Z,11.30
2019-05-18T04:51:26.822Z,11.30
2019-05-18T04:53:55.709Z,11.30
2019-05-18T04:56:24.500Z,11.40
2019-05-18T04:58:53.289Z,11.60
2019-05-18T05:01:22.180Z,11.50
2019-05-18T05:03:50.965Z,11.50
2019-05-18T05:06:19.740Z,11.60
2019-05-18T05:08:48.547Z,11.70
2019-05-18T05:11:17.360Z,11.80
2019-05-18T05:13:46.120Z,11.80
2019-05-18T05:16:15.014Z,11.90
2019-05-18T05:18:43.773Z,12.00
2019-05-18T05:21:12.558Z,12.10
2019-05-18T05:23:41.378Z,12.20
2019-05-18T05:26:10.160Z,12.30
2019-05-18T05:28:38.922Z,12.40
2019-05-18T05:31:07.739Z,12.40
2019-05-18T05:33:36.529Z,12.40
2019-05-18T05:36:05.393Z,12.50
2019-05-18T05:38:34.182Z,12.50
2019-05-18T05:41:02.997Z,12.60
2019-05-18T05:43:31.790Z,12.80
2019-05-18T05:46:00.674Z,12.80
2019-05-18T05:48:30.009Z,12.90
2019-05-18T05:50:58.861Z,13.00
2019-05-18T05:53:27.754Z,13.20
2019-05-18T05:55:56.728Z,13.30
2019-05-18T05:58:25.535Z,13.30
2019-05-18T06:00:55.200Z,13.40
2019-05-18T06:03:23.927Z,13.50
2019-05-18T06:05:52.817Z,13.70
2019-05-18T06:08:21.792Z,13.80
2019-05-18T06:10:50.701Z,13.90
2019-05-18T06:13:19.489Z,14.10
2019-05-18T06:15:48.379Z,14.30
2019-05-18T06:18:17.376Z,14.40
2019-05-18T06:20:51.575Z,14.60
2019-05-18T06:23:18.301Z,14.70
2019-05-18T06:25:47.218Z,14.70
2019-05-18T06:28:16.007Z,14.80
2019-05-18T06:30:44.797Z,14.80
2019-05-18T06:33:13.583Z,14.80
2019-05-18T06:35:42.542Z,14.80
2019-05-18T06:38:11.569Z,14.80
2019-05-18T06:40:40.459Z,15.10
2019-05-18T06:43:09.221Z,15.30
2019-05-18T06:45:38.448Z,15.50
2019-05-18T06:48:07.330Z,15.50
2019-05-18T06:50:36.126Z,15.60
2019-05-18T06:53:05.095Z,15.70
2019-05-18T06:55:34.501Z,15.50
2019-05-18T06:58:03.810Z,15.60
2019-05-18T07:00:32.792Z,15.70
2019-05-18T07:03:02.942Z,15.90
2019-05-18T07:05:31.797Z,16.00
2019-05-18T07:08:00.689Z,16.10
2019-05-18T07:10:30.012Z,16.30
2019-05-18T07:12:58.774Z,16.50
2019-05-18T07:15:27.591Z,16.40
2019-05-18T07:17:56.390Z,16.30
2019-05-18T07:20:25.167Z,16.50
2019-05-18T07:22:53.929Z,16.60
2019-05-18T07:25:22.848Z,16.80
2019-05-18T07:27:51.739Z,16.80
2019-05-18T07:30:20.510Z,16.90
2019-05-18T07:32:49.494Z,17.20
2019-05-18T07:35:18.549Z,17.40
2019-05-18T07:37:48.379Z,17.70
2019-05-18T07:40:18.665Z,17.70
2019-05-18T07:42:49.261Z,17.90
2019-05-18T07:45:19.400Z,17.90
2019-05-18T07:47:49.374Z,18.00
2019-05-18T07:50:18.798Z,18.10
2019-05-18T07:52:49.544Z,18.30
2019-05-18T07:55:19.267Z,18.50
2019-05-18T07:57:52.065Z,18.60
2019-05-18T08:00:22.621Z,18.60
2019-05-18T08:02:52.914Z,18.80
2019-05-18T08:05:23.472Z,19.00
2019-05-18T08:07:54.921Z,19.00
2019-05-18T08:10:39.229Z,19.40
2019-05-18T08:13:11.446Z,19.60
2019-05-18T08:15:40.800Z,19.50
2019-05-18T08:18:10.797Z,19.60
2019-05-18T08:20:40.020Z,19.70
2019-05-18T08:23:13.075Z,20.00
2019-05-18T08:25:42.855Z,20.60
2019-05-18T08:28:13.036Z,20.80
2019-05-18T08:30:41.931Z,21.60
2019-05-18T08:33:10.713Z,22.20
2019-05-18T08:35:39.631Z,22.20
2019-05-18T08:38:09.211Z,22.30
2019-05-18T08:40:37.982Z,22.10
2019-05-18T08:43:06.803Z,22.20
2019-05-18T08:45:35.694Z,22.20
2019-05-18T08:48:04.469Z,22.20
2019-05-18T08:50:33.577Z,22.10
2019-05-18T08:53:04.128Z,21.80
2019-05-18T08:55:32.884Z,22.20
2019-05-18T08:58:02.594Z,22.40
2019-05-18T09:00:31.480Z,22.50
2019-05-18T09:03:00.350Z,22.50
2019-05-18T09:05:29.133Z,22.80
2019-05-18T09:07:57.843Z,22.90
2019-05-18T09:10:26.602Z,23.30
2019-05-18T09:12:55.404Z,23.40
2019-05-18T09:15:24.286Z,23.70
2019-05-18T09:17:53.005Z,23.50
2019-05-18T09:20:21.886Z,23.40
2019-05-18T09:22:51.090Z,23.80
2019-05-18T09:25:19.858Z,24.70
2019-05-18T09:27:48.765Z,24.70
2019-05-18T09:30:17.952Z,24.70
2019-05-18T09:32:46.759Z,25.00
2019-05-18T09:35:15.954Z,25.40
2019-05-18T09:37:44.738Z,25.60
2019-05-18T09:40:13.835Z,26.00
2019-05-18T09:42:42.593Z,26.40
2019-05-18T09:45:12.603Z,26.80
2019-05-18T09:47:41.430Z,26.70
2019-05-18T09:50:10.702Z,26.50
2019-05-18T09:52:45.305Z,26.50
2019-05-18T09:55:10.259Z,26.30
2019-05-18T09:57:39.057Z,26.50
2019-05-18T10:00:10.678Z,26.60
2019-05-18T10:02:40.604Z,27.20
2019-05-18T10:05:18.787Z,27.70
2019-05-18T10:07:46.885Z,27.60
2019-05-18T10:10:16.134Z,28.00
2019-05-18T10:12:45.284Z,27.70
2019-05-18T10:15:14.175Z,28.70
2019-05-18T10:17:42.958Z,29.10
2019-05-18T10:20:12.029Z,29.10
2019-05-18T10:22:53.471Z,30.10
2019-05-18T10:25:12.098Z,31.20
2019-05-18T10:27:40.854Z,32.50
2019-05-18T10:30:11.308Z,32.80
2019-05-18T10:32:40.216Z,33.00
2019-05-18T10:35:09.479Z,32.10
2019-05-18T10:37:38.694Z,32.80
2019-05-18T10:40:08.795Z,33.40
2019-05-18T10:42:37.603Z,34.20
2019-05-18T10:45:07.902Z,35.90
2019-05-18T10:47:36.710Z,36.80
2019-05-18T10:50:07.101Z,37.10
2019-05-18T10:52:35.930Z,37.80
2019-05-18T10:55:08.506Z,36.80
2019-05-18T10:57:37.409Z,35.60
2019-05-18T11:00:11.336Z,35.90
2019-05-18T11:02:40.361Z,34.70
2019-05-18T11:05:09.664Z,34.40
2019-05-18T11:07:39.412Z,33.40
2019-05-18T11:10:09.427Z,32.60
2019-05-18T11:12:38.197Z,32.80
2019-05-18T11:15:08.922Z,32.70
2019-05-18T11:17:37.837Z,32.80
2019-05-18T11:20:09.183Z,34.10
2019-05-18T11:22:37.158Z,35.80
2019-05-18T11:25:09.407Z,36.50
2019-05-18T11:27:38.358Z,37.10
2019-05-18T11:30:08.963Z,37.70
2019-05-18T11:32:38.453Z,37.90
2019-05-18T11:35:08.301Z,37.30
2019-05-18T11:37:37.131Z,36.90
2019-05-18T11:40:07.289Z,38.10
2019-05-18T11:42:36.241Z,39.00
2019-05-18T11:45:09.926Z,39.60
2019-05-18T11:47:38.770Z,38.60
2019-05-18T11:50:08.925Z,39.30
2019-05-18T11:52:45.145Z,38.90
2019-05-18T11:55:14.410Z,38.40
2019-05-18T11:57:43.335Z,37.20
2019-05-18T12:00:15.277Z,35.60
2019-05-18T12:02:44.081Z,35.20
2019-05-18T12:05:13.321Z,36.40
2019-05-18T12:07:42.170Z,35.90
2019-05-18T12:10:11.840Z,35.30
2019-05-18T12:12:40.870Z,35.90
2019-05-18T12:15:29.833Z,36.70
2019-05-18T12:17:58.756Z,36.80
2019-05-18T12:20:27.825Z,35.40
2019-05-18T12:22:56.610Z,34.20
2019-05-18T12:25:25.498Z,33.20
2019-05-18T12:27:55.725Z,32.30
2019-05-18T12:30:24.895Z,31.10
2019-05-18T12:32:53.811Z,30.30
2019-05-18T12:35:22.804Z,29.40
2019-05-18T12:37:51.690Z,28.50
2019-05-18T12:40:22.125Z,28.20
2019-05-18T12:42:51.189Z,28.00
2019-05-18T12:45:20.309Z,27.70
2019-05-18T12:47:49.097Z,27.60
2019-05-18T12:50:18.815Z,27.60
2019-05-18T12:52:47.679Z,27.70
2019-05-18T12:55:17.385Z,27.60
2019-05-18T12:57:46.198Z,27.50
2019-05-18T13:00:17.754Z,27.70
2019-05-18T13:02:47.990Z,28.00
2019-05-18T13:05:17.700Z,28.30
2019-05-18T13:07:55.140Z,28.20
2019-05-18T13:10:24.595Z,28.20
2019-05-18T13:12:53.474Z,28.10
2019-05-18T13:15:23.650Z,28.00
2019-05-18T13:17:52.479Z,27.80
2019-05-18T13:20:23.058Z,27.20
2019-05-18T13:22:51.894Z,26.70
2019-05-18T13:25:20.868Z,25.80
2019-05-18T13:27:50.188Z,25.30
2019-05-18T13:30:24.799Z,25.50
2019-05-18T13:32:58.432Z,25.90
2019-05-18T13:35:30.759Z,27.20
2019-05-18T13:38:01.396Z,28.30
2019-05-18T13:40:31.847Z,29.00
2019-05-18T13:43:00.889Z,29.20
2019-05-18T13:45:29.807Z,29.20
2019-05-18T13:47:58.618Z,30.50
2019-05-18T13:50:27.508Z,30.90
2019-05-18T13:52:56.296Z,31.30
2019-05-18T14:09:23.643Z,29.40
2019-05-18T14:11:53.021Z,30.20
2019-05-18T14:14:21.943Z,32.00
2019-05-18T14:16:50.827Z,33.10
2019-05-18T14:19:19.617Z,32.70
2019-05-18T14:21:48.507Z,32.30
2019-05-18T14:24:17.286Z,33.60
2019-05-18T14:26:45.980Z,34.30
2019-05-18T14:29:14.769Z,34.80
2019-05-18T14:31:43.433Z,34.10
2019-05-18T14:34:12.277Z,33.30
2019-05-18T14:36:41.234Z,32.40
2019-05-18T14:39:10.128Z,31.60
2019-05-18T14:41:42.332Z,30.50
2019-05-18T14:44:09.441Z,29.80
2019-05-18T14:46:38.311Z,28.80
2019-05-18T14:49:07.433Z,28.20
2019-05-18T14:51:36.398Z,27.60
2019-05-18T14:54:05.519Z,27.00
2019-05-18T14:56:35.976Z,26.40
2019-05-18T14:59:05.028Z,25.60
2019-05-18T15:01:33.904Z,24.60
2019-05-18T15:04:03.236Z,24.30
2019-05-18T15:06:34.374Z,24.20
2019-05-18T15:09:03.672Z,24.00
2019-05-18T15:11:32.665Z,23.80
2019-05-18T15:14:01.602Z,23.50
2019-05-18T15:16:30.662Z,23.20
2019-05-18T15:18:59.392Z,23.10
2019-05-18T15:21:28.227Z,22.70
2019-05-18T15:23:57.228Z,21.70
2019-05-18T15:26:26.017Z,21.40
2019-05-18T15:28:55.029Z,21.70
2019-05-18T15:31:24.104Z,22.80
2019-05-18T15:33:53.501Z,25.20
2019-05-18T15:36:24.097Z,27.20
2019-05-18T15:38:53.132Z,29.30
2019-05-18T15:41:22.017Z,30.90
2019-05-18T15:43:52.718Z,32.30
2019-05-18T15:46:22.239Z,33.30
2019-05-18T15:48:51.171Z,33.60
2019-05-18T15:51:20.135Z,33.60
2019-05-18T15:53:49.037Z,32.50
2019-05-18T15:56:17.897Z,31.60
2019-05-18T15:58:46.806Z,31.70
2019-05-18T16:01:15.574Z,32.40
2019-05-18T16:03:44.385Z,33.00
2019-05-18T16:06:13.172Z,33.40
2019-05-18T16:08:42.101Z,33.80
2019-05-18T16:11:11.057Z,33.60
2019-05-18T16:13:39.794Z,33.20
2019-05-18T16:16:08.601Z,32.90
2019-05-18T16:18:37.622Z,31.90
2019-05-18T16:21:06.384Z,31.00
2019-05-18T16:23:35.438Z,30.40
2019-05-18T16:26:13.602Z,29.90
2019-05-18T16:28:35.349Z,29.30
2019-05-18T16:31:04.403Z,28.60
2019-05-18T16:33:33.335Z,27.90
2019-05-18T16:36:02.367Z,27.60
2019-05-18T16:38:31.408Z,27.00
2019-05-18T16:41:00.378Z,26.80
2019-05-18T16:43:30.295Z,26.40
2019-05-18T16:45:59.206Z,26.10
2019-05-18T16:48:28.011Z,26.10
2019-05-18T16:50:56.758Z,25.70
2019-05-18T16:53:25.650Z,25.40
2019-05-18T16:55:54.455Z,25.00
2019-05-18T16:58:42.606Z,24.60
2019-05-18T17:01:11.366Z,24.50
2019-05-18T17:03:41.163Z,24.50
2019-05-18T17:06:10.279Z,24.30
2019-05-18T17:08:39.189Z,24.20
2019-05-18T17:11:08.091Z,24.10
2019-05-18T17:13:37.071Z,23.90
2019-05-18T17:16:05.865Z,23.80
2019-05-18T17:18:34.649Z,23.60
2019-05-18T17:21:03.440Z,23.60
2019-05-18T17:23:32.228Z,23.70
2019-05-18T17:26:09.071Z,23.50
2019-05-18T17:28:38.031Z,23.50
2019-05-18T17:31:06.985Z,23.40
2019-05-18T17:33:36.184Z,23.40
2019-05-18T17:36:05.156Z,23.20
2019-05-18T17:38:34.067Z,23.00
2019-05-18T17:41:02.878Z,23.00
2019-05-18T17:43:31.738Z,22.80
2019-05-18T17:46:00.541Z,22.60
2019-05-18T17:48:29.329Z,22.40
2019-05-18T17:50:58.109Z,22.10
2019-05-18T17:53:26.980Z,21.80
2019-05-18T17:56:00.726Z,21.70
2019-05-18T17:58:30.109Z,21.50
2019-05-18T18:00:58.905Z,21.30
2019-05-18T18:03:27.655Z,21.10
2019-05-18T18:05:56.574Z,21.10
2019-05-18T18:08:25.481Z,20.90
2019-05-18T18:10:54.395Z,20.70
2019-05-18T18:13:23.345Z,20.50
2019-05-18T18:15:53.031Z,20.50
2019-05-18T18:18:21.846Z,20.50
2019-05-18T18:20:50.632Z,20.40
2019-05-18T18:23:19.425Z,20.40
2019-05-18T18:25:48.210Z,20.30
2019-05-18T18:28:17.001Z,20.20
2019-05-18T18:30:45.991Z,20.20
2019-05-18T18:33:14.857Z,20.10
2019-05-18T18:35:43.668Z,19.90
2019-05-18T18:38:12.576Z,20.00
2019-05-18T18:40:41.326Z,20.00
2019-05-18T18:43:10.048Z,19.90
2019-05-18T18:45:39.024Z,19.70
2019-05-18T18:48:07.916Z,19.70
2019-05-18T18:50:36.809Z,19.70
2019-05-18T18:53:05.697Z,19.70
2019-05-18T18:55:35.151Z,19.80
2019-05-18T18:58:04.549Z,19.80
2019-05-18T19:00:33.684Z,19.80
2019-05-18T19:03:02.385Z,19.80
2019-05-18T19:05:31.379Z,19.70
2019-05-18T19:08:00.181Z,19.70
2019-05-18T19:10:29.750Z,19.50
2019-05-18T19:12:58.665Z,19.40
2019-05-18T19:15:27.560Z,19.50
2019-05-18T19:17:56.341Z,19.50
2019-05-18T19:20:25.131Z,19.50
2019-05-18T19:22:53.920Z,19.40
2019-05-18T19:25:24.030Z,19.40
2019-05-18T19:27:55.297Z,19.20
2019-05-18T19:30:24.380Z,19.30
2019-05-18T19:32:53.167Z,19.20
2019-05-18T19:35:21.966Z,19.20
2019-05-18T19:37:50.849Z,19.10
2019-05-18T19:40:19.713Z,19.10
2019-05-18T19:42:48.531Z,18.90
2019-05-18T19:45:17.349Z,19.00
2019-05-18T19:47:46.208Z,19.00
2019-05-18T19:50:15.200Z,18.90
2019-05-18T19:52:44.201Z,18.90
2019-05-18T19:55:13.465Z,18.80
2019-05-18T19:57:42.393Z,18.70
2019-05-18T20:00:13.121Z,18.60
2019-05-18T20:02:41.992Z,18.50
2019-05-18T20:05:10.979Z,18.50
2019-05-18T20:07:39.785Z,18.60
2019-05-18T20:10:09.686Z,18.80
2019-05-18T20:12:38.901Z,18.70
2019-05-18T20:15:09.618Z,18.50
2019-05-18T20:17:38.852Z,18.30
2019-05-18T20:20:08.318Z,18.30
2019-05-18T20:22:37.207Z,18.30
2019-05-18T20:25:06.307Z,18.30
2019-05-18T20:27:35.141Z,18.30
2019-05-18T20:30:05.078Z,18.20
2019-05-18T20:32:33.915Z,18.00
2019-05-18T20:35:02.788Z,18.00
2019-05-18T20:37:31.572Z,17.90
2019-05-18T20:40:00.997Z,17.80
2019-05-18T20:42:29.765Z,17.80
2019-05-18T20:44:58.585Z,17.70
2019-05-18T20:47:27.352Z,17.70
2019-05-18T20:49:56.150Z,17.70
2019-05-18T20:52:24.937Z,17.60
2019-05-18T20:54:53.862Z,17.50
2019-05-18T20:57:22.618Z,17.50
2019-05-18T20:59:51.305Z,17.50
2019-05-18T21:02:20.091Z,17.40
2019-05-18T21:04:49.184Z,17.40
2019-05-18T21:07:17.977Z,17.30
2019-05-18T21:09:46.862Z,17.30
2019-05-18T21:12:15.730Z,17.30
2019-05-18T21:14:44.644Z,17.30
2019-05-18T21:17:13.436Z,17.30
2019-05-18T21:19:42.238Z,17.30
2019-05-18T21:22:10.991Z,17.20
2019-05-18T21:24:39.898Z,17.20
2019-05-18T21:27:08.790Z,17.30
2019-05-18T21:29:37.581Z,17.30
2019-05-18T21:32:06.449Z,17.30
2019-05-18T21:34:35.333Z,17.30
2019-05-18T21:37:04.262Z,17.40
2019-05-18T21:39:33.014Z,17.40
2019-05-18T21:42:01.929Z,17.30
2019-05-18T21:44:31.126Z,17.20
2019-05-18T21:46:59.917Z,17.10
2019-05-18T21:49:28.807Z,17.00
2019-05-18T21:51:57.593Z,17.00
2019-05-18T21:54:26.484Z,17.10
2019-05-18T21:56:55.169Z,16.90
2019-05-18T21:59:24.059Z,16.80
2019-05-18T22:01:52.848Z,16.80
2019-05-18T22:04:21.650Z,16.70
2019-05-18T22:06:50.428Z,16.60
2019-05-18T22:09:19.313Z,16.60
2019-05-18T22:11:48.311Z,16.50
2019-05-18T22:14:17.304Z,16.60
2019-05-18T22:16:46.063Z,16.50
2019-05-18T22:19:14.860Z,16.50
2019-05-18T22:21:43.768Z,16.40
2019-05-18T22:24:12.556Z,16.50
2019-05-18T22:26:41.348Z,16.50
2019-05-18T22:29:15.981Z,16.40
2019-05-18T22:31:48.817Z,16.30
2019-05-18T22:34:16.961Z,16.40
2019-05-18T22:36:51.974Z,16.60
2019-05-18T22:39:26.497Z,16.70
2019-05-18T22:41:54.567Z,16.60
2019-05-18T22:44:24.060Z,16.60
2019-05-18T22:46:52.849Z,16.60
2019-05-18T22:49:21.824Z,16.60
2019-05-18T22:51:50.835Z,16.60
2019-05-18T22:54:19.726Z,16.60
2019-05-18T22:56:50.050Z,16.80
2019-05-18T22:59:19.680Z,16.80
2019-05-18T23:01:49.338Z,16.80
2019-05-18T23:04:18.153Z,16.80
2019-05-18T23:06:47.810Z,16.80
2019-05-18T23:09:17.556Z,16.80
2019-05-18T23:11:46.340Z,16.70
2019-05-18T23:14:19.153Z,16.60
2019-05-18T23:16:51.974Z,16.80
2019-05-18T23:19:24.812Z,16.70
2019-05-18T23:21:54.021Z,16.70
2019-05-18T23:24:24.586Z,16.70
2019-05-18T23:26:58.341Z,16.70
2019-05-18T23:29:31.294Z,16.60
2019-05-18T23:32:02.428Z,16.60
2019-05-18T23:34:35.162Z,16.60
2019-05-18T23:37:08.153Z,16.60
2019-05-18T23:39:41.166Z,16.60
2019-05-18T23:42:14.239Z,16.50
2019-05-18T23:44:46.708Z,16.60
2019-05-18T23:47:18.393Z,16.60
2019-05-18T23:49:47.312Z,16.50
2019-05-18T23:52:19.699Z,16.40
2019-05-18T23:54:52.694Z,16.40
2019-05-18T23:57:26.616Z,16.30
